Time;durP1;ratioP1;P1;durP2;ratioP2;P2;SDS_P1;SDS_P2;PMS_P1;PMS_P2;Temp;Humidity;BMP_temperature;BMP_pressure;BME280_temperature;BME280_humidity;BME280_pressure;Samples;Min_cycle;Max_cycle;Signal;HPM_P1;HPM_P2
2022/04/17 00:00:46;;;;;;;2.47;1.10;;;4.40;81.60;;;;;;5004944;28;20563;-63
2022/04/17 00:03:12;;;;;;;5.10;1.83;;;4.30;80.90;;;;;;5005254;28;20436;-65
2022/04/17 00:05:38;;;;;;;3.60;1.73;;;4.30;80.80;;;;;;5005177;28;20458;-65
2022/04/17 00:08:04;;;;;;;14.50;1.23;;;4.30;81.60;;;;;;5007332;28;21062;-62
2022/04/17 00:10:30;;;;;;;2.97;1.63;;;4.20;81.80;;;;;;5015252;28;20190;-64
2022/04/17 00:12:57;;;;;;;5.63;2.30;;;4.20;81.10;;;;;;5007071;28;20525;-65
2022/04/17 00:15:23;;;;;;;2.83;1.83;;;4.10;81.80;;;;;;5007520;28;20453;-64
2022/04/17 00:17:48;;;;;;;3.87;1.67;;;4.10;82.60;;;;;;5009093;28;20472;-64
2022/04/17 00:20:16;;;;;;;3.40;1.53;;;4.10;82.60;;;;;;5005006;28;20191;-64
2022/04/17 00:22:42;;;;;;;3.37;1.70;;;4.00;82.90;;;;;;5004859;28;20473;-65
2022/04/17 00:25:09;;;;;;;4.10;1.20;;;3.90;83.40;;;;;;5004798;28;20453;-65
2022/04/17 00:27:35;;;;;;;8.30;1.33;;;3.90;82.70;;;;;;5005237;28;20484;-66
2022/04/17 00:30:03;;;;;;;3.10;2.10;;;3.80;82.30;;;;;;5006717;28;20440;-64
2022/04/17 00:32:31;;;;;;;3.10;1.47;;;3.90;82.40;;;;;;5008994;28;20457;-65
2022/04/17 00:34:57;;;;;;;4.23;2.23;;;3.90;82.40;;;;;;5009189;28;20458;-65
2022/04/17 00:37:23;;;;;;;2.00;1.23;;;3.90;82.30;;;;;;5019170;28;20968;-65
2022/04/17 00:39:48;;;;;;;5.43;2.67;;;4.00;82.10;;;;;;5008669;28;20545;-64
2022/04/17 00:42:14;;;;;;;4.30;2.00;;;4.00;82.20;;;;;;5014859;28;20556;-64
2022/04/17 00:44:39;;;;;;;2.83;1.70;;;4.00;82.70;;;;;;5009071;28;20269;-65
2022/04/17 00:47:05;;;;;;;3.10;1.27;;;3.90;82.70;;;;;;5008551;28;20206;-65
2022/04/17 00:49:31;;;;;;;3.03;1.50;;;3.90;83.40;;;;;;5008587;28;20183;-65
2022/04/17 00:51:58;;;;;;;4.37;1.93;;;3.90;83.30;;;;;;5009111;28;20175;-65
2022/04/17 00:54:25;;;;;;;2.27;1.33;;;3.80;83.20;;;;;;5007746;28;20429;-65
2022/04/17 00:56:51;;;;;;;4.30;1.87;;;3.80;84.10;;;;;;5018767;28;20473;-64
2022/04/17 00:59:17;;;;;;;6.07;1.83;;;3.70;84.40;;;;;;5010149;28;20529;-65
2022/04/17 01:01:43;;;;;;;5.20;2.20;;;3.60;84.80;;;;;;5007869;28;20429;-64
2022/04/17 01:04:09;;;;;;;4.57;2.23;;;3.50;85.50;;;;;;5009272;28;20665;-65
2022/04/17 01:06:39;;;;;;;3.13;1.53;;;3.40;85.80;;;;;;5017639;28;20206;-64
2022/04/17 01:09:06;;;;;;;18.73;2.17;;;3.40;84.60;;;;;;5009312;28;20989;-65
2022/04/17 01:11:32;;;;;;;4.03;2.27;;;3.40;84.40;;;;;;5009050;28;20825;-65
2022/04/17 01:13:58;;;;;;;2.70;1.60;;;3.50;84.10;;;;;;5009197;28;20441;-65
2022/04/17 01:16:25;;;;;;;5.23;1.70;;;3.50;83.90;;;;;;5012149;28;20519;-66
2022/04/17 01:19:11;;;;;;;4.37;2.50;;;3.40;83.80;;;;;;4990457;28;20294;-65
2022/04/17 01:21:38;;;;;;;4.57;1.90;;;3.50;84.00;;;;;;5008061;28;20406;-65
2022/04/17 01:26:57;;;;;;;3.57;1.77;;;3.60;83.70;;;;;;5006936;28;20500;-65
2022/04/17 01:29:43;;;;;;;3.13;1.97;;;3.50;84.20;;;;;;5007116;28;20441;-65
2022/04/17 01:32:10;;;;;;;2.73;1.70;;;3.40;84.40;;;;;;5008063;28;20941;-65
2022/04/17 01:34:37;;;;;;;4.87;1.90;;;3.40;85.40;;;;;;5007754;28;21154;-64
2022/04/17 01:37:03;;;;;;;3.00;1.53;;;3.30;85.50;;;;;;5010831;28;20464;-66
2022/04/17 01:39:30;;;;;;;2.80;1.40;;;3.20;85.60;;;;;;5009163;28;20453;-65
2022/04/17 01:41:57;;;;;;;4.00;2.00;;;3.10;86.40;;;;;;5006778;28;20426;-65
2022/04/17 01:44:25;;;;;;;9.27;3.27;;;3.00;87.30;;;;;;5007302;28;20466;-66
2022/04/17 01:46:51;;;;;;;3.53;1.63;;;3.00;87.50;;;;;;5007790;28;20540;-65
2022/04/17 01:49:17;;;;;;;3.13;1.63;;;2.90;87.30;;;;;;5010711;28;20422;-66
2022/04/17 01:51:46;;;;;;;3.80;1.97;;;2.80;87.50;;;;;;5007950;28;20444;-68
2022/04/17 01:54:14;;;;;;;4.60;2.03;;;2.70;87.60;;;;;;5008027;28;20448;-65
2022/04/17 01:56:42;;;;;;;3.23;1.90;;;2.70;89.10;;;;;;5015704;28;20478;-64
2022/04/17 01:59:09;;;;;;;5.07;2.17;;;2.70;89.00;;;;;;5010374;28;21329;-66
2022/04/17 02:01:36;;;;;;;3.30;2.00;;;2.60;89.00;;;;;;5007981;28;20525;-65
2022/04/17 02:04:02;;;;;;;4.13;2.00;;;2.50;89.30;;;;;;4993552;28;20426;-65
2022/04/17 02:06:28;;;;;;;3.93;1.83;;;2.40;89.40;;;;;;5009807;28;20494;-66
2022/04/17 02:08:54;;;;;;;2.73;1.90;;;2.40;90.30;;;;;;4988758;28;20976;-67
2022/04/17 02:11:21;;;;;;;4.80;2.40;;;2.40;90.20;;;;;;5007516;28;20441;-66
2022/04/17 02:13:48;;;;;;;4.40;2.33;;;2.30;90.10;;;;;;5007836;28;20435;-64
2022/04/17 02:16:17;;;;;;;7.60;2.73;;;2.30;90.20;;;;;;5009844;28;20830;-65
2022/04/17 02:18:46;;;;;;;4.13;2.20;;;2.20;90.20;;;;;;5006529;28;20434;-64
2022/04/17 02:21:13;;;;;;;5.80;2.57;;;2.20;90.60;;;;;;5003360;28;20438;-64
2022/04/17 02:23:41;;;;;;;4.87;2.67;;;2.40;90.50;;;;;;5006888;28;20790;-66
2022/04/17 02:26:07;;;;;;;4.00;2.20;;;2.40;90.10;;;;;;5006615;28;20818;-65
2022/04/17 02:28:35;;;;;;;4.60;2.50;;;2.40;90.00;;;;;;5006290;28;20953;-66
2022/04/17 02:31:04;;;;;;;3.30;2.13;;;2.30;90.10;;;;;;5007442;28;20556;-66
2022/04/17 02:33:31;;;;;;;2.97;1.80;;;2.40;90.10;;;;;;5006680;28;20500;-65
2022/04/17 02:35:56;;;;;;;4.93;2.37;;;2.40;90.20;;;;;;5007691;28;20457;-65
2022/04/17 02:38:22;;;;;;;4.47;2.90;;;2.40;90.00;;;;;;5014976;28;20452;-63
2022/04/17 02:40:48;;;;;;;5.10;2.53;;;2.40;89.60;;;;;;5009638;28;20186;-63
2022/04/17 02:43:14;;;;;;;4.87;2.03;;;2.30;90.10;;;;;;5007120;28;20498;-66
2022/04/17 02:45:39;;;;;;;3.43;1.77;;;2.20;89.80;;;;;;5004910;28;20594;-66
2022/04/17 02:48:05;;;;;;;3.20;1.93;;;2.10;90.00;;;;;;5006734;28;20663;-63
2022/04/17 02:50:31;;;;;;;3.60;2.17;;;2.00;90.10;;;;;;5006241;28;20190;-66
2022/04/17 02:52:57;;;;;;;3.60;1.97;;;1.90;90.20;;;;;;5008481;28;20207;-66
2022/04/17 02:55:22;;;;;;;2.80;1.80;;;1.80;90.40;;;;;;5012686;28;20203;-62
2022/04/17 02:57:48;;;;;;;6.43;2.90;;;1.70;90.70;;;;;;5006742;28;20203;-66
2022/04/17 03:00:15;;;;;;;4.57;2.17;;;1.70;90.70;;;;;;5005478;28;20187;-65
2022/04/17 03:05:36;;;;;;;4.67;2.07;;;1.50;91.00;;;;;;5001868;28;20801;-65
2022/04/17 03:08:12;;;;;;;4.53;2.03;;;1.50;91.20;;;;;;5004596;28;20409;-66
2022/04/17 03:10:48;;;;;;;6.93;2.30;;;1.40;91.40;;;;;;5005585;28;20453;-65
2022/04/17 03:13:14;;;;;;;7.30;2.77;;;1.40;92.00;;;;;;5006122;28;20429;-65
2022/04/17 03:15:40;;;;;;;3.00;1.90;;;1.40;91.90;;;;;;5006368;28;20568;-65
2022/04/17 03:18:10;;;;;;;4.03;1.73;;;1.40;92.40;;;;;;5005804;28;20546;-65
2022/04/17 03:20:36;;;;;;;4.30;2.57;;;1.50;92.00;;;;;;5005471;28;20702;-65
2022/04/17 03:23:03;;;;;;;5.10;2.27;;;1.50;92.00;;;;;;4987959;28;20427;-65
2022/04/17 03:25:29;;;;;;;4.00;2.20;;;1.50;92.20;;;;;;5006179;28;20480;-65
2022/04/17 03:27:55;;;;;;;3.80;2.60;;;1.50;92.20;;;;;;5006627;28;20519;-66
2022/04/17 03:30:21;;;;;;;3.57;1.73;;;1.50;92.10;;;;;;5011328;28;20870;-65
2022/04/17 03:32:49;;;;;;;3.90;2.00;;;1.50;92.30;;;;;;5008144;28;20925;-64
2022/04/17 03:35:16;;;;;;;4.03;2.20;;;1.50;92.20;;;;;;5007613;28;20870;-65
2022/04/17 03:37:42;;;;;;;9.37;2.67;;;1.50;92.40;;;;;;5005743;28;20999;-65
2022/04/17 03:40:17;;;;;;;4.57;2.47;;;1.50;92.20;;;;;;4987866;28;20507;-65
2022/04/17 03:42:44;;;;;;;4.13;2.13;;;1.50;92.20;;;;;;5003462;28;20434;-65
2022/04/17 03:45:12;;;;;;;4.27;2.20;;;1.40;92.20;;;;;;5006545;28;20549;-65
2022/04/17 03:47:38;;;;;;;3.27;2.30;;;1.40;92.60;;;;;;5005467;28;20507;-64
2022/04/17 03:50:05;;;;;;;3.80;2.20;;;1.40;92.30;;;;;;5009393;28;20445;-65
2022/04/17 03:52:44;;;;;;;3.97;2.00;;;1.40;92.10;;;;;;5005431;28;20506;-66
2022/04/17 03:55:11;;;;;;;4.00;2.00;;;1.30;92.30;;;;;;5005994;28;20873;-66
2022/04/17 03:57:38;;;;;;;4.70;2.27;;;1.30;92.30;;;;;;5005824;28;20458;-67
2022/04/17 04:00:06;;;;;;;6.60;2.47;;;1.30;92.30;;;;;;5004359;28;20427;-66
2022/04/17 04:02:32;;;;;;;3.27;1.93;;;1.20;92.40;;;;;;5005428;28;20432;-66
2022/04/17 04:04:58;;;;;;;6.13;3.10;;;1.20;92.30;;;;;;5004626;28;20784;-65
2022/04/17 04:07:24;;;;;;;5.73;2.30;;;1.20;92.60;;;;;;5005366;28;20191;-66
2022/04/17 04:09:51;;;;;;;6.87;2.47;;;1.10;92.70;;;;;;5006401;28;20435;-66
2022/04/17 04:12:20;;;;;;;5.63;2.60;;;1.10;93.00;;;;;;5013261;28;20468;-66
2022/04/17 04:14:46;;;;;;;3.20;2.37;;;1.20;92.70;;;;;;5012018;28;20480;-66
2022/04/17 04:17:12;;;;;;;4.60;2.67;;;1.10;92.80;;;;;;5005198;28;21046;-66
2022/04/17 04:19:37;;;;;;;3.97;2.20;;;1.00;92.80;;;;;;5006455;28;20187;-62
2022/04/17 04:22:04;;;;;;;6.63;2.27;;;1.00;92.80;;;;;;5007892;28;20190;-65
2022/04/17 04:24:31;;;;;;;5.83;2.50;;;0.90;92.90;;;;;;4998756;28;20194;-65
2022/04/17 04:29:41;;;;;;;6.50;2.63;;;0.90;93.40;;;;;;5005841;28;20447;-62
2022/04/17 04:32:07;;;;;;;4.57;2.27;;;0.80;93.10;;;;;;5010084;28;20434;-64
2022/04/17 04:34:33;;;;;;;4.93;2.67;;;0.80;93.10;;;;;;5005442;28;20361;-64
2022/04/17 04:36:59;;;;;;;4.87;2.30;;;0.80;93.00;;;;;;5009065;28;20584;-64
2022/04/17 04:39:24;;;;;;;7.17;3.20;;;0.90;93.20;;;;;;5004302;28;20358;-64
2022/04/17 04:41:50;;;;;;;6.57;2.43;;;0.90;92.80;;;;;;5001435;28;20194;-63
2022/04/17 04:44:15;;;;;;;5.70;2.50;;;0.80;93.00;;;;;;5005809;28;20175;-65
2022/04/17 04:46:41;;;;;;;7.63;2.53;;;0.70;93.50;;;;;;5004684;28;20720;-65
2022/04/17 04:51:51;;;;;;;5.80;2.70;;;0.60;93.80;;;;;;5005874;28;20570;-65
2022/04/17 04:54:16;;;;;;;7.90;2.77;;;0.60;93.80;;;;;;5004344;28;20418;-65
2022/04/17 04:56:42;;;;;;;3.73;2.63;;;0.60;93.90;;;;;;5005231;28;20298;-65
2022/04/17 04:59:09;;;;;;;4.83;3.07;;;0.60;93.80;;;;;;5010418;28;20270;-64
2022/04/17 05:01:35;;;;;;;6.90;3.57;;;0.60;93.80;;;;;;4987683;28;20190;-65
2022/04/17 05:04:01;;;;;;;4.70;2.57;;;0.50;94.00;;;;;;5004321;28;20410;-65
2022/04/17 05:06:26;;;;;;;7.30;3.23;;;0.50;94.00;;;;;;5011614;28;20513;-64
2022/04/17 05:08:52;;;;;;;3.90;2.03;;;0.50;94.00;;;;;;5002615;28;20270;-64
2022/04/17 05:11:18;;;;;;;5.50;2.60;;;0.60;94.00;;;;;;5005194;28;20903;-65
2022/04/17 05:13:44;;;;;;;4.90;2.20;;;0.60;94.40;;;;;;5005549;28;20249;-65
2022/04/17 05:16:10;;;;;;;7.73;2.67;;;0.70;94.40;;;;;;5011504;28;20430;-64
2022/04/17 05:18:36;;;;;;;6.47;2.70;;;0.80;94.50;;;;;;5011276;28;20210;-63
2022/04/17 05:21:02;;;;;;;6.87;3.17;;;0.90;94.40;;;;;;5008248;28;20441;-65
2022/04/17 05:23:30;;;;;;;5.20;3.17;;;0.90;94.20;;;;;;5008040;28;20293;-63
2022/04/17 05:25:58;;;;;;;4.13;2.90;;;0.90;94.40;;;;;;5009318;28;20450;-64
2022/04/17 05:28:24;;;;;;;6.43;2.80;;;1.00;94.30;;;;;;5010965;28;20518;-63
2022/04/17 05:30:50;;;;;;;6.37;4.13;;;1.10;93.90;;;;;;5021158;28;20492;-64
2022/04/17 05:33:20;;;;;;;6.30;3.07;;;1.20;93.70;;;;;;5011725;28;20268;-64
2022/04/17 05:35:46;;;;;;;4.70;2.77;;;1.30;93.50;;;;;;5011365;28;20461;-64
2022/04/17 05:38:12;;;;;;;8.37;5.07;;;1.30;93.30;;;;;;5007146;28;20450;-62
2022/04/17 05:40:43;;;;;;;7.50;4.07;;;1.30;93.40;;;;;;5006654;28;20789;-64
2022/04/17 05:43:10;;;;;;;7.70;3.30;;;1.30;93.70;;;;;;5009533;28;20539;-64
2022/04/17 05:45:37;;;;;;;6.33;3.20;;;1.40;93.60;;;;;;5011561;28;20462;-65
2022/04/17 05:48:04;;;;;;;5.97;3.47;;;1.40;93.60;;;;;;5013013;28;20433;-64
2022/04/17 05:50:30;;;;;;;6.63;3.30;;;1.50;93.50;;;;;;5008591;28;20457;-63
2022/04/17 05:52:56;;;;;;;6.00;3.40;;;1.60;93.70;;;;;;5017660;28;20436;-63
2022/04/17 05:55:22;;;;;;;7.90;3.23;;;1.70;93.50;;;;;;5014424;28;20940;-63
2022/04/17 05:57:48;;;;;;;11.30;3.30;;;1.80;93.50;;;;;;5018203;28;20299;-65
2022/04/17 06:00:16;;;;;;;6.77;2.70;;;1.90;93.40;;;;;;5016306;28;20182;-64
2022/04/17 06:02:44;;;;;;;5.60;2.80;;;2.10;93.20;;;;;;4996958;28;20646;-65
2022/04/17 06:05:10;;;;;;;5.50;3.13;;;2.20;92.80;;;;;;5015301;28;20449;-63
2022/04/17 06:07:36;;;;;;;4.80;2.60;;;2.40;92.50;;;;;;5012697;28;20437;-63
2022/04/17 06:10:02;;;;;;;15.90;2.80;;;2.50;92.20;;;;;;5014540;28;20183;-65
2022/04/17 06:12:28;;;;;;;4.10;2.07;;;2.70;91.80;;;;;;5015502;28;20222;-63
2022/04/17 06:14:54;;;;;;;5.17;3.00;;;2.90;91.30;;;;;;5015949;28;20565;-64
2022/04/17 06:17:20;;;;;;;5.43;2.40;;;3.10;90.50;;;;;;5015563;28;20458;-63
2022/04/17 06:19:45;;;;;;;2.90;2.03;;;3.40;90.30;;;;;;5016884;28;20284;-63
2022/04/17 06:22:12;;;;;;;4.50;2.33;;;3.50;90.00;;;;;;5014692;28;20187;-63
2022/04/17 06:24:37;;;;;;;5.00;2.10;;;3.70;90.10;;;;;;5014052;28;20211;-63
2022/04/17 06:27:03;;;;;;;5.93;2.20;;;3.80;89.20;;;;;;5019152;28;20859;-64
2022/04/17 06:29:29;;;;;;;4.50;2.60;;;3.90;87.80;;;;;;5016098;28;20203;-64
2022/04/17 06:31:54;;;;;;;5.87;2.70;;;4.10;88.00;;;;;;5007920;28;20175;-62
2022/04/17 06:34:20;;;;;;;5.30;2.47;;;4.20;88.40;;;;;;5009710;28;20329;-64
2022/04/17 06:36:45;;;;;;;4.50;2.17;;;4.30;87.60;;;;;;5010925;28;20215;-64
2022/04/17 06:39:11;;;;;;;3.47;1.90;;;4.60;87.20;;;;;;4997296;28;20642;-64
2022/04/17 06:41:37;;;;;;;4.70;2.00;;;4.80;86.10;;;;;;5008955;28;20209;-65
2022/04/17 06:44:03;;;;;;;3.70;1.70;;;5.20;85.20;;;;;;5007795;28;20179;-65
2022/04/17 06:46:28;;;;;;;3.73;1.70;;;5.40;84.50;;;;;;5003175;28;20423;-64
2022/04/17 06:48:54;;;;;;;3.70;2.13;;;5.60;82.90;;;;;;5007018;28;21564;-65
2022/04/17 06:51:23;;;;;;;3.10;1.73;;;5.70;82.00;;;;;;5006748;28;20183;-64
2022/04/17 06:53:50;;;;;;;4.30;2.00;;;6.00;80.60;;;;;;5005490;28;20179;-64
2022/04/17 06:56:18;;;;;;;6.80;2.80;;;6.00;80.10;;;;;;5015308;28;20480;-64
2022/04/17 06:58:47;;;;;;;3.87;1.63;;;6.00;80.10;;;;;;5013149;28;20434;-64
2022/04/17 07:01:17;;;;;;;5.50;2.10;;;6.20;80.30;;;;;;5002623;28;20450;-65
2022/04/17 07:03:47;;;;;;;3.60;1.40;;;6.30;80.30;;;;;;5003902;28;20438;-65
2022/04/17 07:06:12;;;;;;;3.83;1.77;;;6.50;79.90;;;;;;5006384;28;20480;-65
2022/04/17 07:08:38;;;;;;;3.60;1.60;;;6.70;79.00;;;;;;5005646;28;20898;-65
2022/04/17 07:11:04;;;;;;;3.20;1.37;;;7.10;77.70;;;;;;5002672;28;20187;-65
2022/04/17 07:13:30;;;;;;;3.30;1.80;;;7.40;76.00;;;;;;5003405;28;20198;-64
2022/04/17 07:15:56;;;;;;;1.67;1.00;;;8.10;74.00;;;;;;5001499;28;20463;-65
2022/04/17 07:18:22;;;;;;;2.03;1.33;;;8.40;72.60;;;;;;5004002;28;20477;-65
2022/04/17 07:20:48;;;;;;;3.97;1.40;;;8.60;71.00;;;;;;5006081;28;20438;-64
2022/04/17 07:23:13;;;;;;;2.40;1.37;;;8.90;70.40;;;;;;5006191;28;20547;-66
2022/04/17 07:25:39;;;;;;;3.00;1.50;;;9.30;68.50;;;;;;5006416;28;20261;-64
2022/04/17 07:28:12;;;;;;;3.83;1.10;;;9.60;68.60;;;;;;5016607;28;20483;-64
2022/04/17 07:30:38;;;;;;;2.70;1.23;;;10.60;65.70;;;;;;5000759;28;20203;-65
2022/04/17 07:33:04;;;;;;;3.97;1.90;;;11.10;62.70;;;;;;5006486;28;21059;-64
2022/04/17 07:35:30;;;;;;;4.60;1.97;;;12.30;60.30;;;;;;5011495;28;20433;-66
2022/04/17 07:38:01;;;;;;;4.57;1.47;;;12.40;59.00;;;;;;5011491;28;20246;-66
2022/04/17 07:40:28;;;;;;;3.03;1.57;;;13.10;57.40;;;;;;5005023;28;20213;-64
2022/04/17 07:42:56;;;;;;;2.60;1.00;;;13.60;56.80;;;;;;5009738;28;20528;-66
2022/04/17 07:45:23;;;;;;;2.93;1.30;;;14.40;55.70;;;;;;4999627;28;20463;-66
2022/04/17 07:47:49;;;;;;;4.90;1.63;;;13.90;54.60;;;;;;5006033;28;20428;-66
2022/04/17 07:50:17;;;;;;;3.10;1.53;;;13.30;54.60;;;;;;4999790;28;20437;-64
2022/04/17 07:52:43;;;;;;;4.03;1.27;;;14.80;53.20;;;;;;5004796;28;20414;-65
2022/04/17 07:55:11;;;;;;;2.80;1.07;;;14.30;53.90;;;;;;5003666;28;20481;-66
2022/04/17 08:00:22;;;;;;;2.90;1.30;;;14.80;52.00;;;;;;4999320;28;20824;-66
2022/04/17 08:02:53;;;;;;;3.00;1.60;;;15.50;51.70;;;;;;5005218;28;20496;-66
2022/04/17 08:05:22;;;;;;;2.07;1.03;;;15.20;49.80;;;;;;5004369;28;20449;-66
2022/04/17 08:07:49;;;;;;;4.40;1.53;;;14.10;52.00;;;;;;5004363;28;20426;-64
2022/04/17 08:10:15;;;;;;;2.93;1.47;;;13.70;53.50;;;;;;5004333;28;20429;-66
2022/04/17 08:12:40;;;;;;;1.80;0.87;;;13.00;54.40;;;;;;5005837;28;20807;-66
2022/04/17 08:15:07;;;;;;;2.90;1.40;;;13.30;54.70;;;;;;5005449;28;20283;-66
2022/04/17 08:17:33;;;;;;;3.30;1.73;;;13.30;54.20;;;;;;5003733;28;20211;-66
2022/04/17 08:19:58;;;;;;;2.97;1.57;;;14.20;52.60;;;;;;5005149;28;20518;-65
2022/04/17 08:22:24;;;;;;;2.73;1.50;;;15.10;51.80;;;;;;5005858;28;20242;-65
2022/04/17 08:24:49;;;;;;;2.50;1.37;;;16.10;51.10;;;;;;5005419;28;20789;-65
2022/04/17 08:27:15;;;;;;;3.83;1.47;;;14.70;50.70;;;;;;5013581;28;20265;-66
2022/04/17 08:29:41;;;;;;;12.23;1.20;;;14.10;51.20;;;;;;5009008;28;20195;-65
2022/04/17 08:32:07;;;;;;;4.33;1.77;;;14.80;52.00;;;;;;5005986;28;20277;-66
2022/04/17 08:34:32;;;;;;;3.00;1.20;;;15.80;50.50;;;;;;5008567;28;20624;-66
2022/04/17 08:36:59;;;;;;;2.30;1.00;;;16.30;49.30;;;;;;4987855;28;20466;-66
2022/04/17 08:39:25;;;;;;;4.80;1.40;;;16.60;48.20;;;;;;5005037;28;20187;-67
2022/04/17 08:41:54;;;;;;;2.47;1.30;;;15.70;48.70;;;;;;5005706;28;20480;-65
2022/04/17 08:44:22;;;;;;;2.13;1.13;;;14.70;50.10;;;;;;5009661;28;20182;-65
2022/04/17 08:46:48;;;;;;;5.00;1.47;;;14.30;51.90;;;;;;5009619;28;20955;-66
2022/04/17 08:49:14;;;;;;;3.50;1.47;;;14.10;51.30;;;;;;5005360;28;20430;-66
2022/04/17 08:51:42;;;;;;;4.87;1.67;;;15.00;52.00;;;;;;5006801;28;20187;-65
2022/04/17 08:54:08;;;;;;;3.70;1.53;;;15.10;51.00;;;;;;5009983;28;20461;-66
2022/04/17 08:56:37;;;;;;;2.73;1.37;;;15.30;51.40;;;;;;5015413;28;20555;-65
2022/04/17 08:59:02;;;;;;;2.33;1.00;;;15.30;49.90;;;;;;5010475;28;20484;-65
2022/04/17 09:01:28;;;;;;;2.60;1.30;;;15.10;51.60;;;;;;5009553;28;20433;-66
2022/04/17 09:03:53;;;;;;;4.47;1.70;;;16.00;50.20;;;;;;5014572;28;20635;-65
2022/04/17 09:06:20;;;;;;;3.03;1.50;;;15.90;50.00;;;;;;5008994;28;20820;-66
2022/04/17 09:09:06;;;;;;;2.57;1.10;;;16.30;48.60;;;;;;5007627;28;20197;-65
2022/04/17 09:11:32;;;;;;;2.20;1.10;;;16.50;47.60;;;;;;5007184;28;20515;-65
2022/04/17 09:14:03;;;;;;;2.20;1.10;;;16.20;48.10;;;;;;5009387;28;20418;-65
2022/04/17 09:16:38;;;;;;;3.93;1.30;;;16.10;48.00;;;;;;5007039;28;20457;-66
2022/04/17 09:19:15;;;;;;;2.00;1.00;;;16.00;46.70;;;;;;5013882;28;20417;-66
2022/04/17 09:21:41;;;;;;;2.47;0.97;;;15.60;45.70;;;;;;5003490;28;20869;-65
2022/04/17 09:24:16;;;;;;;2.57;1.27;;;15.20;45.90;;;;;;5005317;28;21035;-65
2022/04/17 09:26:51;;;;;;;1.90;0.90;;;14.70;48.60;;;;;;5008064;28;20226;-65
2022/04/17 09:29:29;;;;;;;2.00;1.00;;;14.80;47.40;;;;;;5004584;28;20483;-66
2022/04/17 09:32:10;;;;;;;1.90;0.90;;;14.90;46.80;;;;;;5007396;28;20867;-65
2022/04/17 09:34:47;;;;;;;1.97;1.10;;;14.50;47.90;;;;;;5007668;28;20414;-65
2022/04/17 09:37:16;;;;;;;2.10;0.93;;;14.60;46.70;;;;;;5010185;28;21055;-66
2022/04/17 09:39:42;;;;;;;2.00;0.80;;;14.10;44.40;;;;;;5012318;28;20421;-64
2022/04/17 09:42:08;;;;;;;4.60;1.13;;;14.20;46.00;;;;;;5011622;28;20436;-66
2022/04/17 09:44:38;;;;;;;1.90;0.90;;;14.30;45.00;;;;;;5009414;28;20433;-66
2022/04/17 09:47:07;;;;;;;2.83;1.03;;;14.00;45.40;;;;;;5000556;28;20533;-66
2022/04/17 09:49:50;;;;;;;1.77;0.80;;;13.90;46.80;;;;;;5003370;28;20426;-66
2022/04/17 09:52:16;;;;;;;2.17;0.80;;;13.70;47.50;;;;;;5010856;28;20434;-64
2022/04/17 09:54:42;;;;;;;1.80;1.00;;;14.30;46.30;;;;;;5006500;28;20484;-65
2022/04/17 09:57:09;;;;;;;1.73;0.80;;;14.00;46.50;;;;;;5008235;28;20761;-65
2022/04/17 09:59:37;;;;;;;2.33;0.90;;;13.90;47.90;;;;;;5006527;28;21207;-63
2022/04/17 10:02:04;;;;;;;4.93;1.20;;;14.30;47.00;;;;;;5004821;28;20461;-64
2022/04/17 10:04:30;;;;;;;2.03;0.80;;;14.10;45.50;;;;;;5002224;28;20815;-64
2022/04/17 10:06:59;;;;;;;3.00;1.33;;;13.90;46.70;;;;;;5018399;28;20476;-66
2022/04/17 10:09:25;;;;;;;3.27;1.57;;;13.70;47.10;;;;;;5006254;28;20182;-68
2022/04/17 10:11:51;;;;;;;1.73;0.90;;;13.70;48.60;;;;;;5007773;28;20452;-68
2022/04/17 10:14:18;;;;;;;3.00;0.90;;;13.80;47.60;;;;;;5007801;28;20441;-66
2022/04/17 10:16:48;;;;;;;1.80;0.80;;;13.80;48.00;;;;;;5007670;28;20536;-68
2022/04/17 10:19:24;;;;;;;2.00;0.90;;;13.70;47.20;;;;;;5007055;28;20540;-69
2022/04/17 10:21:50;;;;;;;1.70;0.67;;;13.40;47.30;;;;;;5002202;28;20422;-67
2022/04/17 10:24:18;;;;;;;3.70;0.80;;;13.40;49.10;;;;;;5011253;28;20437;-67
2022/04/17 10:26:47;;;;;;;6.13;0.90;;;13.50;47.60;;;;;;5001631;28;20446;-67
2022/04/17 10:29:33;;;;;;;3.07;1.00;;;13.40;48.80;;;;;;5006905;28;20488;-66
2022/04/17 10:32:15;;;;;;;5.77;0.93;;;13.20;48.20;;;;;;5006925;28;20474;-67
2022/04/17 10:34:48;;;;;;;2.73;1.03;;;13.00;48.50;;;;;;5005576;28;20502;-67
2022/04/17 10:37:51;;;;;;;2.20;1.00;;;13.00;48.70;;;;;;5006117;28;20543;-66
2022/04/17 10:40:17;;;;;;;3.03;1.00;;;12.90;50.30;;;;;;5005096;28;20508;-66
2022/04/17 10:42:56;;;;;;;1.87;1.00;;;13.30;52.50;;;;;;5010778;28;20595;-67
2022/04/17 10:45:23;;;;;;;2.70;1.20;;;13.40;50.30;;;;;;5016528;28;20483;-67
2022/04/17 10:48:12;;;;;;;3.43;0.80;;;13.50;48.70;;;;;;5007241;28;20622;-67
2022/04/17 10:50:47;;;;;;;2.77;0.90;;;13.40;49.10;;;;;;5011530;28;20851;-65
2022/04/17 10:53:26;;;;;;;3.37;1.40;;;13.40;50.40;;;;;;5007344;28;20425;-66
2022/04/17 10:56:07;;;;;;;6.50;1.50;;;13.40;50.40;;;;;;5007514;28;20457;-67
2022/04/17 10:58:37;;;;;;;1.60;0.90;;;13.60;48.90;;;;;;5011199;28;20464;-67
2022/04/17 11:01:04;;;;;;;2.17;1.07;;;13.60;48.40;;;;;;5013670;28;20872;-67
2022/04/17 11:03:34;;;;;;;4.03;1.30;;;13.60;48.90;;;;;;5007151;28;20496;-67
2022/04/17 11:06:30;;;;;;;3.63;0.90;;;13.60;47.60;;;;;;5011489;28;20771;-67
2022/04/17 11:09:03;;;;;;;4.53;1.20;;;13.70;48.30;;;;;;5011264;28;20426;-66
2022/04/17 11:11:36;;;;;;;3.23;1.40;;;13.80;47.70;;;;;;5017972;28;20453;-67
2022/04/17 11:14:09;;;;;;;2.00;0.93;;;13.90;47.40;;;;;;5009587;28;20511;-66
2022/04/17 11:16:39;;;;;;;1.60;0.70;;;13.70;46.80;;;;;;5012836;28;20441;-66
2022/04/17 11:19:08;;;;;;;6.00;1.70;;;13.70;48.60;;;;;;5005666;28;20473;-66
2022/04/17 11:21:42;;;;;;;2.43;1.30;;;14.00;47.30;;;;;;5011236;28;20925;-66
2022/04/17 11:24:08;;;;;;;2.40;0.83;;;13.60;47.00;;;;;;5005094;28;20418;-66
2022/04/17 11:26:52;;;;;;;2.63;0.93;;;13.70;46.90;;;;;;5007062;28;20437;-65
2022/04/17 11:29:38;;;;;;;3.50;1.10;;;13.80;46.50;;;;;;5000369;28;20356;-66
2022/04/17 11:32:27;;;;;;;1.73;0.80;;;13.80;48.00;;;;;;5011869;28;20426;-66
2022/04/17 11:34:55;;;;;;;1.60;0.90;;;14.00;50.90;;;;;;5007086;28;21014;-66
2022/04/17 11:37:25;;;;;;;3.20;0.90;;;14.10;47.60;;;;;;4995529;28;20857;-64
2022/04/17 11:39:53;;;;;;;1.70;0.90;;;14.20;47.30;;;;;;5007016;28;20702;-66
2022/04/17 11:42:19;;;;;;;4.90;0.97;;;14.20;45.30;;;;;;5014719;28;20905;-65
2022/04/17 11:44:47;;;;;;;1.80;0.80;;;14.20;45.80;;;;;;5015731;28;21298;-66
2022/04/17 11:47:20;;;;;;;1.73;0.77;;;14.40;45.80;;;;;;5010759;28;20453;-66
2022/04/17 11:49:47;;;;;;;1.73;0.80;;;14.60;47.10;;;;;;5009218;28;20528;-65
2022/04/17 11:52:14;;;;;;;4.13;1.20;;;14.80;45.90;;;;;;5009114;28;20465;-65
2022/04/17 11:54:41;;;;;;;1.40;0.60;;;14.80;45.10;;;;;;5013222;28;20425;-66
2022/04/17 11:57:08;;;;;;;1.40;0.70;;;14.40;44.10;;;;;;5009445;28;20813;-65
2022/04/17 11:59:56;;;;;;;1.40;0.60;;;14.30;44.10;;;;;;5005395;28;20434;-66
2022/04/17 12:02:27;;;;;;;1.90;0.80;;;14.40;44.30;;;;;;5013605;28;20427;-66
2022/04/17 12:05:05;;;;;;;2.10;0.90;;;14.20;43.90;;;;;;5006624;28;20902;-66
2022/04/17 12:07:31;;;;;;;1.53;0.60;;;14.50;44.70;;;;;;5007965;28;20440;-65
2022/04/17 12:10:11;;;;;;;1.50;0.60;;;14.50;44.50;;;;;;5008732;28;20433;-66
2022/04/17 12:12:45;;;;;;;1.40;0.60;;;14.90;45.90;;;;;;5012234;28;20444;-65
2022/04/17 12:15:12;;;;;;;3.73;0.87;;;15.20;45.50;;;;;;5005987;28;21039;-65
2022/04/17 12:17:39;;;;;;;1.50;0.73;;;15.30;44.00;;;;;;5010256;28;20539;-65
2022/04/17 12:20:09;;;;;;;3.47;0.80;;;15.40;43.30;;;;;;5005588;28;21052;-66
2022/04/17 12:22:36;;;;;;;1.47;0.73;;;15.40;44.80;;;;;;5011930;28;20439;-64
2022/04/17 12:25:03;;;;;;;1.77;0.77;;;15.20;44.50;;;;;;5010722;28;20918;-68
2022/04/17 12:27:29;;;;;;;1.60;0.70;;;15.00;44.70;;;;;;5006250;28;20803;-66
2022/04/17 12:29:57;;;;;;;2.50;1.00;;;15.10;45.10;;;;;;5005860;28;20425;-64
2022/04/17 12:32:24;;;;;;;3.70;0.90;;;15.20;45.60;;;;;;5003485;28;20765;-65
2022/04/17 12:34:58;;;;;;;1.60;0.70;;;14.70;48.10;;;;;;5008725;28;20418;-65
2022/04/17 12:37:34;;;;;;;2.97;0.80;;;14.50;47.60;;;;;;5013881;28;20462;-64
2022/04/17 12:40:09;;;;;;;1.73;0.70;;;14.50;47.90;;;;;;5011181;28;20912;-65
2022/04/17 12:42:34;;;;;;;4.20;1.20;;;14.90;48.00;;;;;;4986119;28;20441;-65
2022/04/17 12:45:00;;;;;;;3.83;1.50;;;14.80;49.40;;;;;;5021382;28;20457;-64
2022/04/17 12:47:26;;;;;;;2.00;1.03;;;14.70;48.20;;;;;;5006164;28;20202;-66
2022/04/17 12:50:00;;;;;;;2.70;0.80;;;14.90;49.10;;;;;;5004979;28;20199;-65
2022/04/17 12:52:27;;;;;;;2.87;1.20;;;15.30;48.70;;;;;;5009876;28;20224;-65
2022/04/17 12:54:56;;;;;;;2.13;0.87;;;15.40;48.80;;;;;;5007238;28;20429;-66
2022/04/17 12:57:22;;;;;;;2.70;0.90;;;15.30;47.90;;;;;;5005549;28;20207;-64
2022/04/17 12:59:50;;;;;;;2.90;1.03;;;15.40;47.60;;;;;;5005283;28;20469;-66
2022/04/17 13:02:26;;;;;;;3.80;1.00;;;15.50;47.80;;;;;;5006803;28;20298;-66
2022/04/17 13:04:57;;;;;;;2.10;0.90;;;15.90;48.00;;;;;;4999569;28;20501;-64
2022/04/17 13:07:30;;;;;;;1.83;0.80;;;16.10;47.00;;;;;;5005513;28;20422;-65
2022/04/17 13:09:58;;;;;;;3.33;1.30;;;16.20;46.10;;;;;;5004884;28;20438;-66
2022/04/17 13:12:35;;;;;;;5.10;0.90;;;16.10;46.70;;;;;;5005320;28;20465;-64